createdAt,value
2023-10-10T00:01:45.406Z,1.05
2023-10-10T00:04:13.295Z,1.06
2023-10-10T00:06:41.222Z,1.06
2023-10-10T00:09:12.334Z,1.07
2023-10-10T00:11:46.511Z,1.07
2023-10-10T00:14:18.921Z,1.07
2023-10-10T00:16:49.243Z,1.08
2023-10-10T00:19:30.969Z,1.08
2023-10-10T00:21:58.660Z,1.08
2023-10-10T00:24:32.367Z,1.07
2023-10-10T00:27:01.084Z,1.05
2023-10-10T00:29:30.053Z,1.04
2023-10-10T00:32:06.944Z,1.03
2023-10-10T00:34:38.410Z,1.02
2023-10-10T00:37:09.753Z,1.01
2023-10-10T00:39:38.000Z,1.02
2023-10-10T00:42:09.192Z,1.02
2023-10-10T00:44:39.464Z,1.02
2023-10-10T00:47:14.558Z,1.02
2023-10-10T00:49:44.766Z,1.01
2023-10-10T00:52:14.100Z,1.00
2023-10-10T00:54:44.892Z,1.01
2023-10-10T00:57:20.923Z,1.02
2023-10-10T00:59:50.122Z,1.00
2023-10-10T01:02:22.168Z,0.98
2023-10-10T01:04:50.337Z,0.97
2023-10-10T01:07:21.324Z,0.96
2023-10-10T01:09:55.387Z,0.95
2023-10-10T01:12:24.214Z,0.95
2023-10-10T01:14:56.246Z,0.94
2023-10-10T01:17:30.569Z,0.94
2023-10-10T01:20:10.625Z,0.93
2023-10-10T01:22:41.201Z,0.91
2023-10-10T01:25:27.630Z,0.90
2023-10-10T01:27:57.905Z,0.89
2023-10-10T01:30:45.693Z,0.87
2023-10-10T01:33:16.395Z,0.86
2023-10-10T01:35:46.858Z,0.84
2023-10-10T01:38:43.022Z,0.83
2023-10-10T01:41:17.375Z,0.83
2023-10-10T01:43:47.625Z,0.83
2023-10-10T01:46:29.852Z,0.83
2023-10-10T01:49:02.802Z,0.83
2023-10-10T01:51:34.441Z,0.82
2023-10-10T01:54:29.408Z,0.82
2023-10-10T01:56:56.651Z,0.82
2023-10-10T01:59:27.326Z,0.81
2023-10-10T02:01:56.374Z,0.81
2023-10-10T02:04:24.796Z,0.80
2023-10-10T02:06:58.031Z,0.78
2023-10-10T02:09:25.265Z,0.77
2023-10-10T02:11:55.946Z,0.75
2023-10-10T02:14:26.739Z,0.73
2023-10-10T02:16:57.075Z,0.72
2023-10-10T02:19:41.370Z,0.71
2023-10-10T02:22:23.957Z,0.70
2023-10-10T02:25:10.171Z,0.67
2023-10-10T02:27:54.985Z,0.66
2023-10-10T02:30:38.834Z,0.65
2023-10-10T02:33:25.519Z,0.63
2023-10-10T02:35:56.493Z,0.62
2023-10-10T02:38:35.782Z,0.61
2023-10-10T02:41:24.089Z,0.61
2023-10-10T02:43:56.322Z,0.58
2023-10-10T02:46:39.344Z,0.55
2023-10-10T02:49:14.019Z,0.53
2023-10-10T02:51:44.343Z,0.52
2023-10-10T02:54:27.218Z,0.50
2023-10-10T02:57:21.390Z,0.47
2023-10-10T02:59:52.121Z,0.46
2023-10-10T03:02:42.092Z,0.45
2023-10-10T03:06:07.783Z,0.43
2023-10-10T03:08:35.152Z,0.39
2023-10-10T03:11:03.737Z,0.38
2023-10-10T03:13:38.123Z,0.37
2023-10-10T03:16:23.334Z,0.34
2023-10-10T03:19:04.288Z,0.31
2023-10-10T03:21:50.554Z,0.30
2023-10-10T03:24:24.297Z,0.30
2023-10-10T03:27:02.118Z,0.30
2023-10-10T03:29:48.956Z,0.28
2023-10-10T03:32:32.519Z,0.25
2023-10-10T03:35:14.907Z,0.25
2023-10-10T03:37:46.724Z,0.23
2023-10-10T03:40:28.435Z,0.22
2023-10-10T03:43:14.952Z,0.21
2023-10-10T03:46:01.286Z,0.21
2023-10-10T03:48:47.297Z,0.20
2023-10-10T03:51:33.208Z,0.19
2023-10-10T03:54:19.315Z,0.19
2023-10-10T03:57:07.256Z,0.18
2023-10-10T03:59:53.148Z,0.18
2023-10-10T04:02:39.287Z,0.16
2023-10-10T04:05:28.094Z,0.15
2023-10-10T04:08:14.483Z,0.13
2023-10-10T04:11:06.300Z,0.12
2023-10-10T04:13:52.469Z,0.10
2023-10-10T04:16:38.548Z,0.09
2023-10-10T04:19:24.501Z,0.10
2023-10-10T04:22:10.382Z,0.11
2023-10-10T04:24:56.984Z,0.14
2023-10-10T04:27:44.078Z,0.17
2023-10-10T04:30:30.102Z,0.36
2023-10-10T04:33:15.798Z,0.70
2023-10-10T04:36:04.983Z,0.98
2023-10-10T04:38:50.936Z,1.42
2023-10-10T04:41:36.857Z,1.97
2023-10-10T04:44:22.840Z,2.55
2023-10-10T04:47:09.078Z,3.12
2023-10-10T04:49:55.055Z,3.71
2023-10-10T04:52:41.176Z,4.27
2023-10-10T04:55:27.064Z,4.81
2023-10-10T04:58:12.850Z,5.38
2023-10-10T05:00:58.900Z,5.95
2023-10-10T05:03:44.790Z,6.53
2023-10-10T05:06:30.837Z,7.12
2023-10-10T05:09:16.584Z,7.69
2023-10-10T05:12:02.481Z,8.19
2023-10-10T05:14:48.361Z,8.55
2023-10-10T05:17:34.368Z,8.83
2023-10-10T05:20:20.519Z,9.19
2023-10-10T05:23:06.674Z,9.33
2023-10-10T05:25:34.363Z,9.16
2023-10-10T05:28:01.599Z,8.89
2023-10-10T05:30:41.054Z,8.58
2023-10-10T05:33:08.599Z,8.24
2023-10-10T05:35:48.831Z,7.99
2023-10-10T05:38:17.172Z,7.73
2023-10-10T05:40:44.652Z,7.60
2023-10-10T05:43:16.754Z,7.48
2023-10-10T05:45:45.111Z,7.40
2023-10-10T05:48:13.424Z,7.29
2023-10-10T05:50:44.042Z,7.28
2023-10-10T05:53:11.602Z,7.23
2023-10-10T05:55:39.696Z,7.15
2023-10-10T05:58:07.135Z,7.01
2023-10-10T06:00:45.824Z,6.86
2023-10-10T06:03:15.919Z,6.75
2023-10-10T06:05:46.741Z,6.65
2023-10-10T06:08:14.606Z,6.58
2023-10-10T06:10:42.047Z,6.56
2023-10-10T06:13:11.810Z,6.56
2023-10-10T06:15:39.311Z,6.51
2023-10-10T06:18:15.611Z,6.50
2023-10-10T06:20:58.065Z,6.51
2023-10-10T06:23:35.198Z,6.55
2023-10-10T06:26:03.800Z,6.54
2023-10-10T06:28:37.265Z,6.59
2023-10-10T06:31:11.784Z,6.73
2023-10-10T06:33:42.406Z,6.91
2023-10-10T06:36:33.827Z,7.09
2023-10-10T06:39:21.595Z,7.28
2023-10-10T06:41:52.111Z,7.34
2023-10-10T06:44:33.301Z,7.36
2023-10-10T06:47:02.108Z,7.35
2023-10-10T06:49:44.713Z,7.34
2023-10-10T06:52:19.677Z,7.37
2023-10-10T06:54:55.113Z,7.38
2023-10-10T06:57:38.007Z,7.36
2023-10-10T07:00:30.482Z,7.36
2023-10-10T07:02:58.442Z,7.38
2023-10-10T07:05:29.481Z,7.41
2023-10-10T07:08:00.384Z,7.48
2023-10-10T07:10:35.051Z,7.58
2023-10-10T07:13:03.407Z,7.67
2023-10-10T07:15:36.929Z,7.68
2023-10-10T07:18:16.968Z,7.74
2023-10-10T07:21:03.881Z,7.81
2023-10-10T07:23:39.430Z,7.90
2023-10-10T07:26:21.736Z,7.97
2023-10-10T07:28:49.537Z,8.12
2023-10-10T07:31:22.348Z,8.28
2023-10-10T07:34:10.988Z,8.46
2023-10-10T07:36:38.204Z,8.57
2023-10-10T07:39:25.718Z,8.64
2023-10-10T07:41:53.892Z,8.76
2023-10-10T07:44:23.976Z,8.92
2023-10-10T07:47:10.119Z,9.08
2023-10-10T07:49:41.405Z,9.30
2023-10-10T07:52:17.734Z,9.49
2023-10-10T07:54:47.557Z,9.68
2023-10-10T07:57:23.838Z,9.84
2023-10-10T07:59:56.944Z,10.00
2023-10-10T08:02:30.753Z,10.15
2023-10-10T08:04:59.440Z,10.28
2023-10-10T08:07:27.529Z,10.39
2023-10-10T08:10:14.498Z,10.52
2023-10-10T08:12:42.574Z,10.66
2023-10-10T08:15:26.484Z,10.78
2023-10-10T08:17:55.456Z,10.86
2023-10-10T08:20:36.186Z,10.97
2023-10-10T08:23:04.815Z,11.10
2023-10-10T08:25:33.305Z,11.20
2023-10-10T08:28:01.189Z,11.29
2023-10-10T08:30:28.605Z,11.43
2023-10-10T08:32:56.920Z,11.58
2023-10-10T08:35:24.522Z,11.65
2023-10-10T08:37:52.138Z,11.78
2023-10-10T08:40:23.235Z,11.95
2023-10-10T08:42:51.507Z,12.08
2023-10-10T08:45:26.162Z,12.18
2023-10-10T08:48:02.982Z,12.24
2023-10-10T08:50:33.942Z,12.32
2023-10-10T08:53:01.497Z,12.43
2023-10-10T08:55:29.520Z,12.56
2023-10-10T08:57:57.576Z,12.67
2023-10-10T09:00:28.396Z,12.75
2023-10-10T09:02:56.625Z,12.82
2023-10-10T09:05:25.841Z,12.93
2023-10-10T09:07:56.564Z,13.03
2023-10-10T09:10:29.723Z,13.12
2023-10-10T09:12:57.731Z,13.19
2023-10-10T09:15:28.747Z,13.16
2023-10-10T09:18:18.855Z,13.13
2023-10-10T09:20:47.131Z,13.14
2023-10-10T09:23:28.029Z,13.08
2023-10-10T09:26:30.822Z,12.94
2023-10-10T09:29:00.140Z,12.93
2023-10-10T09:31:33.716Z,13.03
2023-10-10T09:34:05.039Z,13.14
2023-10-10T09:36:39.548Z,13.06
2023-10-10T09:39:10.167Z,12.94
2023-10-10T09:41:38.891Z,12.86
2023-10-10T09:44:23.181Z,12.86
2023-10-10T09:47:03.269Z,13.01
2023-10-10T09:49:41.676Z,13.17
2023-10-10T09:52:34.218Z,13.22
2023-10-10T09:55:08.848Z,13.28
2023-10-10T09:57:44.762Z,13.35
2023-10-10T10:00:26.922Z,13.31
2023-10-10T10:02:58.810Z,13.20
2023-10-10T10:05:30.140Z,13.06
2023-10-10T10:08:23.198Z,12.92
2023-10-10T10:10:57.906Z,12.79
2023-10-10T10:13:55.149Z,12.70
2023-10-10T10:17:13.622Z,12.71
2023-10-10T10:19:48.514Z,12.75
2023-10-10T10:22:20.253Z,12.75
2023-10-10T10:24:47.915Z,12.76
2023-10-10T10:27:32.660Z,12.78
2023-10-10T10:30:19.786Z,12.89
2023-10-10T10:32:50.663Z,13.04
2023-10-10T10:36:07.156Z,13.22
2023-10-10T10:38:35.615Z,13.39
2023-10-10T10:41:08.531Z,13.47
2023-10-10T10:43:43.850Z,13.48
2023-10-10T10:46:16.993Z,13.50
2023-10-10T10:48:56.018Z,13.50
2023-10-10T10:51:42.400Z,13.51
2023-10-10T10:54:10.513Z,13.58
2023-10-10T10:56:37.821Z,13.68
2023-10-10T10:59:15.390Z,13.75
2023-10-10T11:01:59.318Z,13.79
2023-10-10T11:04:47.050Z,13.73
2023-10-10T11:07:27.756Z,13.69
2023-10-10T11:10:11.417Z,13.63
2023-10-10T11:12:38.795Z,13.53
2023-10-10T11:15:12.079Z,13.54
2023-10-10T11:17:40.415Z,13.65
2023-10-10T11:20:29.895Z,13.73
2023-10-10T11:23:08.161Z,13.75
2023-10-10T11:26:00.044Z,13.66
2023-10-10T11:28:48.732Z,13.46
2023-10-10T11:31:24.547Z,13.27
2023-10-10T11:34:12.100Z,13.19
2023-10-10T11:36:40.932Z,13.22
2023-10-10T11:39:33.196Z,13.31
2023-10-10T11:42:05.899Z,13.40
2023-10-10T11:44:34.693Z,13.44
2023-10-10T11:47:09.296Z,13.37
2023-10-10T11:49:36.730Z,13.29
2023-10-10T11:52:05.196Z,13.20
2023-10-10T11:54:32.638Z,13.10
2023-10-10T11:57:01.269Z,13.00
2023-10-10T11:59:29.310Z,12.91
2023-10-10T12:02:08.923Z,12.84
2023-10-10T12:04:38.748Z,12.77
2023-10-10T12:07:07.609Z,12.70
2023-10-10T12:09:35.246Z,12.63
2023-10-10T12:12:04.588Z,12.59
2023-10-10T12:14:33.381Z,12.57
2023-10-10T12:17:01.444Z,12.57
2023-10-10T12:19:37.493Z,12.56
2023-10-10T12:22:16.935Z,12.52
2023-10-10T12:24:44.561Z,12.47
2023-10-10T12:27:12.076Z,12.43
2023-10-10T12:29:41.243Z,12.46
2023-10-10T12:32:23.505Z,12.48
2023-10-10T12:34:51.723Z,12.48
2023-10-10T12:37:19.851Z,12.47
2023-10-10T12:39:47.750Z,12.43
2023-10-10T12:42:15.292Z,12.39
2023-10-10T12:44:49.896Z,12.35
2023-10-10T12:47:20.133Z,12.31
2023-10-10T12:49:47.850Z,12.27
2023-10-10T12:52:19.072Z,12.21
2023-10-10T12:54:48.570Z,12.19
2023-10-10T12:57:16.134Z,12.18
2023-10-10T12:59:49.681Z,12.17
2023-10-10T13:02:17.518Z,12.17
2023-10-10T13:04:48.521Z,12.17
2023-10-10T13:07:17.742Z,12.11
2023-10-10T13:09:48.304Z,12.08
2023-10-10T13:12:27.791Z,12.06
2023-10-10T13:15:07.150Z,12.03
2023-10-10T13:17:51.331Z,12.01
2023-10-10T13:20:19.996Z,12.00
2023-10-10T13:22:51.749Z,11.96
2023-10-10T13:25:20.519Z,11.89
2023-10-10T13:27:48.094Z,11.81
2023-10-10T13:30:15.745Z,11.78
2023-10-10T13:32:44.194Z,11.77
2023-10-10T13:35:11.781Z,11.78
2023-10-10T13:37:44.586Z,11.77
2023-10-10T13:40:24.515Z,11.74
2023-10-10T13:42:51.970Z,11.68
2023-10-10T13:45:22.229Z,11.63
2023-10-10T13:47:49.853Z,11.58
2023-10-10T13:50:29.961Z,11.53
2023-10-10T13:52:58.419Z,11.46
2023-10-10T13:55:27.339Z,11.41
2023-10-10T13:57:54.929Z,11.37
2023-10-10T14:00:34.856Z,11.35
2023-10-10T14:03:05.398Z,11.33
2023-10-10T14:05:43.051Z,11.29
2023-10-10T14:08:19.023Z,11.21
2023-10-10T14:10:51.412Z,11.12
2023-10-10T14:13:21.884Z,11.07
2023-10-10T14:15:57.769Z,11.02
2023-10-10T14:18:29.083Z,10.95
2023-10-10T14:20:57.526Z,10.89
2023-10-10T14:23:26.237Z,10.84
2023-10-10T14:26:04.292Z,10.80
2023-10-10T14:28:33.420Z,10.75
2023-10-10T14:31:01.087Z,10.72
2023-10-10T14:33:28.812Z,10.69
2023-10-10T14:35:57.752Z,10.65
2023-10-10T14:38:25.196Z,10.62
2023-10-10T14:40:52.761Z,10.56
2023-10-10T14:43:20.993Z,10.50
2023-10-10T14:45:50.032Z,10.44
2023-10-10T14:48:20.481Z,10.38
2023-10-10T14:50:53.942Z,10.30
2023-10-10T14:53:23.859Z,10.23
2023-10-10T14:55:54.226Z,10.14
2023-10-10T14:58:24.471Z,10.05
2023-10-10T15:00:53.957Z,9.97
2023-10-10T15:03:21.501Z,9.89
2023-10-10T15:05:52.818Z,9.80
2023-10-10T15:08:21.657Z,9.71
2023-10-10T15:10:52.718Z,9.63
2023-10-10T15:13:20.353Z,9.55
2023-10-10T15:15:47.918Z,9.46
2023-10-10T15:18:18.924Z,9.39
2023-10-10T15:20:49.998Z,9.31
2023-10-10T15:24:13.226Z,9.23
2023-10-10T15:26:41.444Z,9.13
2023-10-10T15:29:14.227Z,9.05
2023-10-10T15:31:42.246Z,8.98
2023-10-10T15:34:14.897Z,8.90
2023-10-10T15:36:45.357Z,8.82
2023-10-10T15:39:13.030Z,8.75
2023-10-10T15:41:42.342Z,8.66
2023-10-10T15:44:13.571Z,8.57
2023-10-10T15:46:44.885Z,8.47
2023-10-10T15:51:46.346Z,8.24
2023-10-10T15:54:16.055Z,8.13
2023-10-10T15:56:44.157Z,8.03
2023-10-10T15:59:11.684Z,7.91
2023-10-10T16:01:39.282Z,7.79
2023-10-10T16:04:08.169Z,7.68
2023-10-10T16:06:36.142Z,7.55
2023-10-10T16:09:11.598Z,7.43
2023-10-10T16:11:41.599Z,7.31
2023-10-10T16:14:15.689Z,7.21
2023-10-10T16:16:46.579Z,7.09
2023-10-10T16:19:15.158Z,6.96
2023-10-10T16:21:43.434Z,6.83
2023-10-10T16:24:16.725Z,6.72
2023-10-10T16:26:45.049Z,6.59
2023-10-10T16:29:12.937Z,6.48
2023-10-10T16:31:45.082Z,6.37
2023-10-10T16:34:13.055Z,6.25
2023-10-10T16:36:40.451Z,6.15
2023-10-10T16:39:12.185Z,6.04
2023-10-10T16:41:39.795Z,5.93
2023-10-10T16:44:12.437Z,5.82
2023-10-10T16:46:42.157Z,5.72
2023-10-10T16:49:09.977Z,5.63
2023-10-10T16:51:37.449Z,5.54
2023-10-10T16:54:07.737Z,5.45
2023-10-10T16:56:35.903Z,5.36
2023-10-10T16:59:05.876Z,5.27
2023-10-10T17:01:33.781Z,5.19
2023-10-10T17:04:01.541Z,5.13
2023-10-10T17:06:32.529Z,5.07
2023-10-10T17:09:05.898Z,5.01
2023-10-10T17:11:33.648Z,4.93
2023-10-10T17:14:04.743Z,4.86
2023-10-10T17:16:34.277Z,4.77
2023-10-10T17:21:32.831Z,4.63
2023-10-10T17:24:02.800Z,4.57
2023-10-10T17:26:31.750Z,4.49
2023-10-10T17:29:00.798Z,4.43
2023-10-10T17:31:28.291Z,4.37
2023-10-10T17:33:57.055Z,4.30
2023-10-10T17:36:27.577Z,4.24
2023-10-10T17:38:55.929Z,4.19
2023-10-10T17:41:25.163Z,4.14
2023-10-10T17:43:53.627Z,4.09
2023-10-10T17:46:22.199Z,4.03
2023-10-10T17:48:55.419Z,3.96
2023-10-10T17:51:24.996Z,3.90
2023-10-10T17:53:58.562Z,3.84
2023-10-10T17:56:28.017Z,3.79
2023-10-10T17:58:55.801Z,3.74
2023-10-10T18:01:23.664Z,3.67
2023-10-10T18:03:55.241Z,3.59
2023-10-10T18:06:24.531Z,3.52
2023-10-10T18:08:56.890Z,3.46
2023-10-10T18:11:27.748Z,3.40
2023-10-10T18:13:55.399Z,3.31
2023-10-10T18:16:23.043Z,3.24
2023-10-10T18:18:52.983Z,3.18
2023-10-10T18:21:21.522Z,3.13
2023-10-10T18:23:48.889Z,3.08
2023-10-10T18:26:23.026Z,3.02
2023-10-10T18:28:53.085Z,2.97
2023-10-10T18:31:31.457Z,2.93
2023-10-10T18:33:59.096Z,2.87
2023-10-10T18:36:26.416Z,2.83
2023-10-10T18:38:55.081Z,2.79
2023-10-10T18:41:24.463Z,2.75
2023-10-10T18:43:55.505Z,2.70
2023-10-10T18:46:25.572Z,2.66
2023-10-10T18:48:53.322Z,2.62
2023-10-10T18:51:20.885Z,2.56
2023-10-10T18:53:49.061Z,2.52
2023-10-10T18:56:16.465Z,2.49
2023-10-10T18:58:43.729Z,2.47
2023-10-10T19:01:12.721Z,2.44
2023-10-10T19:03:49.160Z,2.41
2023-10-10T19:06:18.990Z,2.39
2023-10-10T19:08:49.620Z,2.35
2023-10-10T19:11:24.587Z,2.32
2023-10-10T19:13:52.161Z,2.29
2023-10-10T19:16:19.732Z,2.26
2023-10-10T19:18:47.439Z,2.24
2023-10-10T19:21:18.724Z,2.21
2023-10-10T19:23:51.426Z,2.19
2023-10-10T19:26:18.986Z,2.16
2023-10-10T19:28:54.138Z,2.15
2023-10-10T19:31:25.380Z,2.12
2023-10-10T19:33:52.813Z,2.09
2023-10-10T19:36:21.390Z,2.06
2023-10-10T19:38:49.227Z,2.00
2023-10-10T19:41:19.427Z,1.95
2023-10-10T19:43:46.979Z,1.92
2023-10-10T19:46:14.306Z,1.87
2023-10-10T19:48:42.322Z,1.84
2023-10-10T19:51:14.772Z,1.81
2023-10-10T19:53:42.109Z,1.79
2023-10-10T19:56:15.413Z,1.75
2023-10-10T19:58:43.173Z,1.71
2023-10-10T20:01:10.850Z,1.68
2023-10-10T20:03:42.775Z,1.64
2023-10-10T20:06:21.132Z,1.62
2023-10-10T20:08:49.708Z,1.58
2023-10-10T20:11:17.125Z,1.56
2023-10-10T20:13:44.573Z,1.52
2023-10-10T20:16:18.257Z,1.48
2023-10-10T20:18:46.393Z,1.47
2023-10-10T20:21:14.488Z,1.44
2023-10-10T20:23:43.367Z,1.41
2023-10-10T20:26:19.609Z,1.38
2023-10-10T20:28:48.999Z,1.36
2023-10-10T20:31:18.638Z,1.34
2023-10-10T20:33:48.533Z,1.33
2023-10-10T20:36:17.722Z,1.33
2023-10-10T20:38:45.589Z,1.33
2023-10-10T20:41:13.626Z,1.34
2023-10-10T20:43:41.866Z,1.35
2023-10-10T20:46:09.889Z,1.36
2023-10-10T20:48:37.517Z,1.38
2023-10-10T20:51:05.434Z,1.39
2023-10-10T20:53:33.097Z,1.40
2023-10-10T20:56:03.305Z,1.41
2023-10-10T20:58:33.210Z,1.42
2023-10-10T21:01:03.865Z,1.42
2023-10-10T21:03:31.369Z,1.42
2023-10-10T21:05:59.009Z,1.42
2023-10-10T21:08:27.144Z,1.42
2023-10-10T21:10:54.553Z,1.42
2023-10-10T21:13:22.699Z,1.43
2023-10-10T21:15:50.674Z,1.44
2023-10-10T21:18:19.751Z,1.47
2023-10-10T21:21:00.147Z,1.48
2023-10-10T21:23:31.418Z,1.50
2023-10-10T21:25:58.877Z,1.50
2023-10-10T21:28:26.485Z,1.51
2023-10-10T21:30:54.157Z,1.52
2023-10-10T21:33:21.816Z,1.53
2023-10-10T21:35:51.153Z,1.53
2023-10-10T21:38:21.757Z,1.54
2023-10-10T21:40:50.612Z,1.55
2023-10-10T21:43:18.076Z,1.55
2023-10-10T21:45:45.284Z,1.55
2023-10-10T21:48:12.679Z,1.54
2023-10-10T21:50:43.326Z,1.51
2023-10-10T21:53:10.811Z,1.48
2023-10-10T21:55:38.688Z,1.45
2023-10-10T21:58:06.708Z,1.42
2023-10-10T22:00:34.460Z,1.38
2023-10-10T22:03:08.552Z,1.33
2023-10-10T22:05:36.546Z,1.28
2023-10-10T22:08:08.032Z,1.24
2023-10-10T22:10:36.963Z,1.22
2023-10-10T22:13:07.791Z,1.20
2023-10-10T22:15:36.655Z,1.17
2023-10-10T22:18:05.875Z,1.13
2023-10-10T22:20:36.528Z,1.09
2023-10-10T22:23:07.023Z,1.07
2023-10-10T22:25:36.135Z,1.05
2023-10-10T22:28:05.573Z,1.04
2023-10-10T22:30:37.117Z,1.01
2023-10-10T22:33:05.687Z,0.98
2023-10-10T22:35:35.977Z,0.95
2023-10-10T22:38:06.969Z,0.91
2023-10-10T22:40:35.300Z,0.89
2023-10-10T22:43:04.830Z,0.87
2023-10-10T22:45:36.198Z,0.84
2023-10-10T22:48:05.158Z,0.83
2023-10-10T22:50:33.017Z,0.80
2023-10-10T22:53:05.022Z,0.77
2023-10-10T22:55:35.986Z,0.76
2023-10-10T22:58:08.031Z,0.74
2023-10-10T23:00:39.428Z,0.71
2023-10-10T23:03:11.586Z,0.68
2023-10-10T23:05:44.150Z,0.65
2023-10-10T23:08:13.073Z,0.63
2023-10-10T23:10:41.473Z,0.59
2023-10-10T23:13:09.005Z,0.55
2023-10-10T23:15:38.784Z,0.54
2023-10-10T23:18:11.793Z,0.52
2023-10-10T23:20:42.463Z,0.51
2023-10-10T23:23:12.065Z,0.49
2023-10-10T23:25:39.860Z,0.47
2023-10-10T23:28:09.524Z,0.45
2023-10-10T23:30:40.523Z,0.44
2023-10-10T23:33:13.176Z,0.42
2023-10-10T23:35:41.906Z,0.39
2023-10-10T23:38:10.756Z,0.36
2023-10-10T23:40:47.442Z,0.33
2023-10-10T23:43:22.904Z,0.31
2023-10-10T23:46:00.784Z,0.27
2023-10-10T23:48:32.067Z,0.23
2023-10-10T23:51:00.619Z,0.20
2023-10-10T23:53:28.356Z,0.19
2023-10-10T23:56:00.632Z,0.17
2023-10-10T23:58:30.559Z,0.15
